Time;durP1;ratioP1;P1;durP2;ratioP2;P2;SDS_P1;SDS_P2;PMS_P1;PMS_P2;Temp;Humidity;BMP_temperature;BMP_pressure;BME280_temperature;BME280_humidity;BME280_pressure;Samples;Min_cycle;Max_cycle;Signal;HPM_P1;HPM_P2
2022/03/07 00:13:50;;;;;;;6.10;4.30;;;;;;;1.81;54.86;100709.72;31479308;28;20048;-74
2022/03/07 00:28:52;;;;;;;4.33;3.00;;;;;;;1.62;58.12;100687.09;31452899;28;20465;-73
2022/03/07 00:43:54;;;;;;;4.07;2.90;;;;;;;1.65;56.85;100659.63;31477638;28;20097;-75
2022/03/07 00:58:57;;;;;;;4.73;3.50;;;;;;;1.62;58.51;100644.28;31461852;28;20052;-74
2022/03/07 01:13:59;;;;;;;7.00;4.23;;;;;;;1.55;60.19;100614.66;31477251;28;20036;-74
2022/03/07 01:29:01;;;;;;;5.67;3.27;;;;;;;1.57;59.88;100612.41;31490547;28;20055;-73
2022/03/07 01:44:03;;;;;;;6.83;3.87;;;;;;;1.52;60.68;100604.63;31488346;28;20065;-74
2022/03/07 01:59:11;;;;;;;5.77;3.80;;;;;;;1.50;59.72;100598.06;31495128;28;20048;-74
2022/03/07 02:14:18;;;;;;;9.23;4.67;;;;;;;1.41;62.59;100574.19;31493621;28;20086;-74
2022/03/07 02:29:20;;;;;;;6.77;3.30;;;;;;;1.09;62.93;100583.28;31487972;28;20048;-73
2022/03/07 02:44:23;;;;;;;7.27;4.30;;;;;;;0.59;65.48;100573.91;31499354;28;20507;-74
2022/03/07 02:59:26;;;;;;;6.10;4.17;;;;;;;0.29;66.24;100562.75;31496178;28;20482;-73
2022/03/07 03:14:28;;;;;;;7.33;4.23;;;;;;;0.25;66.86;100557.28;31483738;28;20048;-74
2022/03/07 03:29:31;;;;;;;6.63;4.20;;;;;;;0.16;66.68;100548.66;31476812;28;20045;-74
2022/03/07 03:44:33;;;;;;;8.20;4.73;;;;;;;-0.13;68.93;100524.91;31469228;28;20150;-74
2022/03/07 03:59:35;;;;;;;9.77;4.63;;;;;;;0.22;67.95;100515.28;31488454;28;20060;-73
2022/03/07 04:14:38;;;;;;;11.00;5.33;;;;;;;0.46;68.34;100503.72;31483053;28;20044;-73
2022/03/07 04:29:41;;;;;;;8.60;3.97;;;;;;;0.58;65.72;100484.19;31479083;28;20051;-75
2022/03/07 04:44:43;;;;;;;7.13;4.60;;;;;;;0.46;67.95;100484.25;31485581;28;20634;-74
2022/03/07 04:59:46;;;;;;;8.73;5.40;;;;;;;0.16;68.74;100457.88;31488389;28;20056;-74
2022/03/07 05:14:48;;;;;;;9.53;5.67;;;;;;;0.27;67.75;100458.94;31505731;28;20063;-73
2022/03/07 05:29:50;;;;;;;9.70;5.33;;;;;;;0.43;69.30;100455.53;31492991;28;20053;-75
2022/03/07 05:44:52;;;;;;;11.27;5.57;;;;;;;0.58;69.06;100436.88;31495304;28;20072;-73
2022/03/07 05:59:54;;;;;;;8.77;4.33;;;;;;;1.10;67.75;100432.41;31492017;28;20063;-73
2022/03/07 06:14:56;;;;;;;11.37;4.90;;;;;;;1.09;64.82;100428.19;31492812;28;20063;-74
2022/03/07 06:29:59;;;;;;;8.03;5.20;;;;;;;3.07;59.48;100418.69;31484666;28;20051;-74
2022/03/07 06:45:01;;;;;;;7.53;4.40;;;;;;;1.94;65.64;100425.47;31485894;28;20052;-75
2022/03/07 07:00:08;;;;;;;12.47;6.20;;;;;;;1.73;68.52;100408.19;31484306;28;20045;-73
2022/03/07 07:15:11;;;;;;;8.83;4.97;;;;;;;1.80;69.13;100400.31;31483279;28;20102;-74
2022/03/07 07:30:13;;;;;;;14.57;6.63;;;;;;;2.71;69.88;100376.38;31467782;28;20044;-70
2022/03/07 07:45:15;;;;;;;11.83;5.47;;;;;;;4.20;57.39;100356.88;31471408;28;20505;-74
2022/03/07 08:00:21;;;;;;;10.40;6.13;;;;;;;2.84;65.80;100337.50;31477947;28;20106;-73
2022/03/07 08:15:23;;;;;;;12.17;6.03;;;;;;;3.20;68.30;100322.69;31482046;28;20055;-74
2022/03/07 08:30:29;;;;;;;6.00;4.23;;;;;;;3.97;60.06;100310.59;31488280;28;20061;-74
2022/03/07 08:45:33;;;;;;;9.47;5.23;;;;;;;6.10;56.78;100274.19;31499731;28;20090;-75
2022/03/07 09:00:55;;;;;;;7.97;4.13;;;;;;;7.59;42.33;100241.47;31495714;28;20102;-74
2022/03/07 09:15:58;;;;;;;5.13;3.53;;;;;;;7.82;44.73;100239.03;31489373;28;20044;-75
2022/03/07 09:31:00;;;;;;;8.33;3.57;;;;;;;8.99;42.96;100221.03;31489464;28;20052;-74
2022/03/07 09:46:03;;;;;;;11.50;4.80;;;;;;;8.72;42.52;100220.19;31482747;28;20466;-74
2022/03/07 10:01:10;;;;;;;9.60;5.53;;;;;;;6.05;45.69;100209.88;31494772;28;20091;-75
2022/03/07 10:16:12;;;;;;;6.10;4.00;;;;;;;4.55;50.61;100205.09;31487601;28;20060;-74
2022/03/07 10:31:16;;;;;;;8.80;5.23;;;;;;;3.90;60.51;100208.44;31485008;28;20419;-74
2022/03/07 10:46:26;;;;;;;10.17;5.53;;;;;;;3.14;73.30;100195.38;31487242;28;20484;-74
2022/03/07 11:01:31;;;;;;;12.30;5.17;;;;;;;3.14;72.02;100195.38;31489574;28;20048;-75
2022/03/07 11:16:34;;;;;;;11.27;4.83;;;;;;;3.25;73.31;100168.69;31493066;28;20063;-74
2022/03/07 11:31:38;;;;;;;9.63;5.50;;;;;;;3.06;73.37;100150.88;31486736;28;20051;-74
2022/03/07 11:46:44;;;;;;;8.37;4.90;;;;;;;3.65;68.25;100133.81;31487439;28;20056;-74
2022/03/07 12:01:54;;;;;;;8.53;5.03;;;;;;;4.40;65.81;100121.69;31486533;28;20045;-76
2022/03/07 12:17:00;;;;;;;13.23;5.43;;;;;;;5.85;60.66;100104.38;31473422;28;20053;-74
2022/03/07 12:32:05;;;;;;;8.43;4.90;;;;;;;4.41;64.08;100104.41;31486259;28;20428;-74
2022/03/07 12:47:09;;;;;;;10.10;5.00;;;;;;;2.59;69.87;100100.50;31498801;28;20049;-73
2022/03/07 13:02:11;;;;;;;7.50;4.07;;;;;;;2.25;72.25;100097.75;31478575;28;20372;-73
2022/03/07 13:17:19;;;;;;;8.60;3.97;;;;;;;1.52;78.95;100109.63;31480355;28;20174;-74
2022/03/07 13:32:22;;;;;;;10.40;5.63;;;;;;;1.77;79.42;100098.56;31470592;28;20393;-75
2022/03/07 13:47:31;;;;;;;9.30;3.87;;;;;;;1.79;79.74;100085.59;31484520;28;20488;-85
2022/03/07 14:02:42;;;;;;;11.40;5.77;;;;;;;2.35;76.43;100078.41;31519927;28;20049;-74
2022/03/07 14:17:46;;;;;;;12.90;5.90;;;;;;;2.10;78.31;100089.91;31499393;28;20052;-80
2022/03/07 14:32:48;;;;;;;12.23;5.03;;;;;;;2.03;83.61;100074.50;31524570;28;20504;-81
2022/03/07 14:47:51;;;;;;;12.63;4.97;;;;;;;2.00;82.38;100053.78;31474713;28;20082;-82
2022/03/07 15:02:54;;;;;;;8.57;5.30;;;;;;;2.15;80.51;100044.81;31500981;28;20163;-78
2022/03/07 15:17:56;;;;;;;15.23;5.23;;;;;;;2.09;79.98;100046.28;31495483;28;20131;-76
2022/03/07 15:32:58;;;;;;;18.37;7.00;;;;;;;2.17;78.37;100042.53;31479457;28;20156;-75
2022/03/07 15:48:00;;;;;;;10.30;6.10;;;;;;;2.13;76.34;100052.44;31448813;28;20044;-75
2022/03/07 16:03:03;;;;;;;9.20;5.80;;;;;;;2.12;76.60;100056.28;31472790;28;20048;-75
2022/03/07 16:18:09;;;;;;;12.10;5.73;;;;;;;1.91;77.34;100069.34;31470311;28;20148;-74
2022/03/07 16:33:11;;;;;;;8.00;3.67;;;;;;;1.28;77.60;100077.91;31452921;28;20052;-74
2022/03/07 16:48:14;;;;;;;6.63;3.80;;;;;;;0.97;79.68;100078.84;31485005;28;20084;-74
2022/03/07 17:03:16;;;;;;;8.20;4.30;;;;;;;0.88;81.09;100063.06;31499879;28;20660;-73
2022/03/07 17:18:18;;;;;;;9.63;4.90;;;;;;;1.05;80.96;100058.38;31490713;28;20563;-73
2022/03/07 17:33:21;;;;;;;10.07;5.10;;;;;;;0.77;80.64;100047.94;31465429;28;20053;-72
2022/03/07 17:48:23;;;;;;;7.90;4.70;;;;;;;0.82;81.12;100042.31;31467361;28;20132;-73
2022/03/07 18:03:26;;;;;;;7.03;3.90;;;;;;;1.11;80.99;100030.22;31486150;28;20053;-73
2022/03/07 18:18:29;;;;;;;9.37;4.67;;;;;;;1.13;81.04;100034.09;31481518;28;20048;-72
2022/03/07 18:33:31;;;;;;;5.47;4.00;;;;;;;1.18;79.00;100025.00;31450878;28;20607;-76
2022/03/07 18:48:33;;;;;;;10.83;5.27;;;;;;;1.29;78.63;100015.25;31492241;28;20054;-76
2022/03/07 19:03:37;;;;;;;7.83;4.93;;;;;;;1.36;80.17;100020.72;31473468;28;20052;-74
2022/03/07 19:18:40;;;;;;;11.13;5.93;;;;;;;1.30;81.08;100012.22;31472943;28;20083;-77
2022/03/07 19:33:42;;;;;;;7.13;4.50;;;;;;;1.15;80.08;100020.38;31479422;28;20051;-75
2022/03/07 19:48:44;;;;;;;14.73;7.70;;;;;;;0.94;82.63;100010.09;31472739;28;20124;-76
2022/03/07 20:03:47;;;;;;;11.60;4.83;;;;;;;0.93;85.14;100013.88;31477351;28;20439;-75
2022/03/07 20:18:49;;;;;;;5.03;3.63;;;;;;;0.98;82.67;100018.91;31486149;28;20060;-75
2022/03/07 20:33:51;;;;;;;4.93;3.37;;;;;;;0.89;82.62;100010.38;31496663;28;20127;-76
2022/03/07 20:48:54;;;;;;;7.17;3.60;;;;;;;0.52;87.57;100010.06;31499800;28;20063;-76
2022/03/07 21:03:56;;;;;;;6.87;3.83;;;;;;;0.20;90.34;100002.22;31489602;28;20063;-75
2022/03/07 21:18:58;;;;;;;9.30;3.67;;;;;;;0.07;89.55;100006.13;31501003;28;20056;-75
2022/03/07 21:34:00;;;;;;;7.33;4.00;;;;;;;0.05;91.18;99996.91;31502929;28;20457;-75
2022/03/07 21:49:03;;;;;;;6.97;3.90;;;;;;;0.20;88.30;99998.75;31502359;28;20048;-74
2022/03/07 22:04:05;;;;;;;6.00;3.67;;;;;;;0.48;85.17;99987.84;31520618;28;20062;-75
2022/03/07 22:19:07;;;;;;;5.17;3.33;;;;;;;0.57;83.14;99985.75;31497752;28;20428;-74
2022/03/07 22:34:09;;;;;;;4.43;3.10;;;;;;;0.23;84.34;99987.38;31497172;28;20051;-75
2022/03/07 22:49:11;;;;;;;3.97;3.00;;;;;;;0.31;83.20;99989.84;31492384;28;20488;-74
2022/03/07 23:04:13;;;;;;;7.00;3.57;;;;;;;0.44;82.75;99985.13;31490201;28;20049;-75
2022/03/07 23:19:15;;;;;;;6.10;3.17;;;;;;;0.53;82.33;99980.31;31477834;28;20488;-75
2022/03/07 23:34:18;;;;;;;6.93;3.67;;;;;;;0.53;81.63;99963.53;31478662;28;20052;-74
2022/03/07 23:49:20;;;;;;;4.70;3.20;;;;;;;0.67;80.13;99953.13;31494711;28;20060;-74
